sensor_id;sensor_type;location;lat;lon;timestamp;P1;durP1;ratioP1;P2;durP2;ratioP2
49942;SDS011;36011;53.362;58.948;2022-09-13T00:00:42;5.03;;;2.65;;
49942;SDS011;36011;53.362;58.948;2022-09-13T00:03:44;2.42;;;2.20;;
49942;SDS011;36011;53.362;58.948;2022-09-13T00:06:50;2.80;;;2.50;;
49942;SDS011;36011;53.362;58.948;2022-09-13T00:09:54;2.60;;;2.10;;
49942;SDS011;36011;53.362;58.948;2022-09-13T00:13:01;3.75;;;2.63;;
49942;SDS011;36011;53.362;58.948;2022-09-13T00:16:09;3.30;;;2.40;;
49942;SDS011;36011;53.362;58.948;2022-09-13T00:19:12;3.33;;;2.30;;
49942;SDS011;36011;53.362;58.948;2022-09-13T00:22:13;3.92;;;2.63;;
49942;SDS011;36011;53.362;58.948;2022-09-13T00:25:20;2.45;;;2.05;;
49942;SDS011;36011;53.362;58.948;2022-09-13T00:28:21;4.38;;;2.67;;
49942;SDS011;36011;53.362;58.948;2022-09-13T00:31:24;8.00;;;4.78;;
49942;SDS011;36011;53.362;58.948;2022-09-13T00:34:27;7.90;;;5.07;;
49942;SDS011;36011;53.362;58.948;2022-09-13T00:37:32;5.65;;;4.10;;
49942;SDS011;36011;53.362;58.948;2022-09-13T00:40:36;5.45;;;4.13;;
49942;SDS011;36011;53.362;58.948;2022-09-13T00:43:45;5.97;;;4.43;;
49942;SDS011;36011;53.362;58.948;2022-09-13T00:46:51;6.05;;;4.15;;
49942;SDS011;36011;53.362;58.948;2022-09-13T00:49:57;4.75;;;3.80;;
49942;SDS011;36011;53.362;58.948;2022-09-13T00:53:17;6.65;;;3.85;;
49942;SDS011;36011;53.362;58.948;2022-09-13T00:56:29;5.32;;;3.38;;
49942;SDS011;36011;53.362;58.948;2022-09-13T00:59:37;4.40;;;2.80;;
49942;SDS011;36011;53.362;58.948;2022-09-13T01:02:47;4.03;;;3.10;;
49942;SDS011;36011;53.362;58.948;2022-09-13T01:05:59;6.80;;;4.90;;
49942;SDS011;36011;53.362;58.948;2022-09-13T01:09:04;3.92;;;3.00;;
49942;SDS011;36011;53.362;58.948;2022-09-13T01:12:11;3.78;;;2.83;;
49942;SDS011;36011;53.362;58.948;2022-09-13T01:15:18;3.15;;;2.83;;
49942;SDS011;36011;53.362;58.948;2022-09-13T01:18:20;3.30;;;3.00;;
49942;SDS011;36011;53.362;58.948;2022-09-13T01:21:46;3.25;;;2.95;;
49942;SDS011;36011;53.362;58.948;2022-09-13T01:51:48;6.97;;;3.00;;
49942;SDS011;36011;53.362;58.948;2022-09-13T01:55:02;5.47;;;3.25;;
49942;SDS011;36011;53.362;58.948;2022-09-13T02:01:35;10.68;;;4.50;;
49942;SDS011;36011;53.362;58.948;2022-09-13T02:04:59;13.27;;;5.20;;
49942;SDS011;36011;53.362;58.948;2022-09-13T02:08:10;16.88;;;6.30;;
49942;SDS011;36011;53.362;58.948;2022-09-13T02:11:19;24.13;;;9.10;;
49942;SDS011;36011;53.362;58.948;2022-09-13T02:14:36;51.65;;;16.00;;
49942;SDS011;36011;53.362;58.948;2022-09-13T02:17:42;69.05;;;21.98;;
49942;SDS011;36011;53.362;58.948;2022-09-13T02:20:49;102.95;;;30.90;;
49942;SDS011;36011;53.362;58.948;2022-09-13T02:24:03;123.25;;;35.28;;
49942;SDS011;36011;53.362;58.948;2022-09-13T02:27:13;147.13;;;42.45;;
49942;SDS011;36011;53.362;58.948;2022-09-13T02:30:20;142.75;;;41.92;;
49942;SDS011;36011;53.362;58.948;2022-09-13T02:33:38;164.35;;;42.78;;
49942;SDS011;36011;53.362;58.948;2022-09-13T02:36:49;151.30;;;45.08;;
49942;SDS011;36011;53.362;58.948;2022-09-13T02:39:56;168.40;;;43.20;;
49942;SDS011;36011;53.362;58.948;2022-09-13T02:43:05;168.07;;;45.10;;
49942;SDS011;36011;53.362;58.948;2022-09-13T02:49:42;172.25;;;43.25;;
49942;SDS011;36011;53.362;58.948;2022-09-13T02:53:01;167.30;;;44.33;;
49942;SDS011;36011;53.362;58.948;2022-09-13T02:59:31;158.05;;;43.90;;
49942;SDS011;36011;53.362;58.948;2022-09-13T03:02:34;139.90;;;43.20;;
49942;SDS011;36011;53.362;58.948;2022-09-13T03:05:41;147.35;;;43.58;;
49942;SDS011;36011;53.362;58.948;2022-09-13T03:08:48;134.82;;;40.05;;
49942;SDS011;36011;53.362;58.948;2022-09-13T03:11:55;120.13;;;37.55;;
49942;SDS011;36011;53.362;58.948;2022-09-13T03:21:26;93.28;;;30.35;;
49942;SDS011;36011;53.362;58.948;2022-09-13T03:27:40;49.78;;;17.83;;
49942;SDS011;36011;53.362;58.948;2022-09-13T03:30:54;39.30;;;14.95;;
49942;SDS011;36011;53.362;58.948;2022-09-13T03:43:55;28.92;;;11.93;;
49942;SDS011;36011;53.362;58.948;2022-09-13T03:47:02;28.77;;;12.48;;
49942;SDS011;36011;53.362;58.948;2022-09-13T03:50:11;27.95;;;13.50;;
49942;SDS011;36011;53.362;58.948;2022-09-13T03:53:21;31.70;;;14.13;;
49942;SDS011;36011;53.362;58.948;2022-09-13T03:56:25;32.70;;;13.50;;
49942;SDS011;36011;53.362;58.948;2022-09-13T03:59:32;18.80;;;9.73;;
49942;SDS011;36011;53.362;58.948;2022-09-13T04:02:33;15.07;;;7.20;;
49942;SDS011;36011;53.362;58.948;2022-09-13T04:05:37;13.27;;;7.18;;
49942;SDS011;36011;53.362;58.948;2022-09-13T04:08:39;13.45;;;7.00;;
49942;SDS011;36011;53.362;58.948;2022-09-13T04:11:46;10.73;;;5.70;;
49942;SDS011;36011;53.362;58.948;2022-09-13T04:14:48;15.85;;;7.40;;
49942;SDS011;36011;53.362;58.948;2022-09-13T04:17:50;18.40;;;8.98;;
49942;SDS011;36011;53.362;58.948;2022-09-13T04:20:52;25.95;;;11.82;;
49942;SDS011;36011;53.362;58.948;2022-09-13T04:23:54;20.40;;;12.50;;
49942;SDS011;36011;53.362;58.948;2022-09-13T04:26:57;25.55;;;12.43;;
49942;SDS011;36011;53.362;58.948;2022-09-13T04:30:00;24.65;;;11.15;;
49942;SDS011;36011;53.362;58.948;2022-09-13T04:33:07;21.83;;;11.45;;
49942;SDS011;36011;53.362;58.948;2022-09-13T04:36:08;16.40;;;10.18;;
49942;SDS011;36011;53.362;58.948;2022-09-13T04:39:12;19.83;;;10.32;;
49942;SDS011;36011;53.362;58.948;2022-09-13T04:42:14;24.92;;;13.10;;
49942;SDS011;36011;53.362;58.948;2022-09-13T04:45:16;31.20;;;14.73;;
49942;SDS011;36011;53.362;58.948;2022-09-13T04:48:20;29.27;;;15.25;;
49942;SDS011;36011;53.362;58.948;2022-09-13T04:51:27;31.63;;;15.80;;
49942;SDS011;36011;53.362;58.948;2022-09-13T04:54:29;36.95;;;18.75;;
49942;SDS011;36011;53.362;58.948;2022-09-13T04:57:31;43.63;;;23.63;;
49942;SDS011;36011;53.362;58.948;2022-09-13T05:00:34;38.08;;;22.15;;
49942;SDS011;36011;53.362;58.948;2022-09-13T05:03:36;43.90;;;24.45;;
49942;SDS011;36011;53.362;58.948;2022-09-13T05:06:38;37.58;;;20.88;;
49942;SDS011;36011;53.362;58.948;2022-09-13T05:09:42;41.45;;;22.85;;
49942;SDS011;36011;53.362;58.948;2022-09-13T05:12:46;43.50;;;21.63;;
49942;SDS011;36011;53.362;58.948;2022-09-13T05:15:48;35.47;;;19.88;;
49942;SDS011;36011;53.362;58.948;2022-09-13T05:18:50;36.22;;;20.33;;
49942;SDS011;36011;53.362;58.948;2022-09-13T05:21:51;45.45;;;20.35;;
49942;SDS011;36011;53.362;58.948;2022-09-13T05:25:00;38.45;;;19.83;;
49942;SDS011;36011;53.362;58.948;2022-09-13T05:28:06;31.08;;;17.33;;
49942;SDS011;36011;53.362;58.948;2022-09-13T05:31:17;30.02;;;16.50;;
49942;SDS011;36011;53.362;58.948;2022-09-13T05:34:30;26.10;;;14.00;;
49942;SDS011;36011;53.362;58.948;2022-09-13T05:37:39;32.20;;;16.13;;
49942;SDS011;36011;53.362;58.948;2022-09-13T05:40:42;32.25;;;13.80;;
49942;SDS011;36011;53.362;58.948;2022-09-13T05:43:44;20.65;;;12.55;;
49942;SDS011;36011;53.362;58.948;2022-09-13T05:46:46;23.87;;;13.03;;
49942;SDS011;36011;53.362;58.948;2022-09-13T05:49:48;21.55;;;12.27;;
49942;SDS011;36011;53.362;58.948;2022-09-13T05:52:55;20.88;;;13.10;;
49942;SDS011;36011;53.362;58.948;2022-09-13T05:56:01;27.90;;;14.70;;
49942;SDS011;36011;53.362;58.948;2022-09-13T05:59:02;30.67;;;17.10;;
49942;SDS011;36011;53.362;58.948;2022-09-13T06:02:07;32.63;;;17.92;;
49942;SDS011;36011;53.362;58.948;2022-09-13T06:05:13;29.77;;;17.05;;
49942;SDS011;36011;53.362;58.948;2022-09-13T06:08:17;22.38;;;14.40;;
49942;SDS011;36011;53.362;58.948;2022-09-13T06:11:24;24.48;;;13.60;;
49942;SDS011;36011;53.362;58.948;2022-09-13T06:14:28;18.50;;;11.63;;
49942;SDS011;36011;53.362;58.948;2022-09-13T06:17:30;19.83;;;10.50;;
49942;SDS011;36011;53.362;58.948;2022-09-13T06:20:36;21.58;;;12.35;;
49942;SDS011;36011;53.362;58.948;2022-09-13T06:23:40;20.17;;;10.00;;
49942;SDS011;36011;53.362;58.948;2022-09-13T06:26:41;17.52;;;8.77;;
49942;SDS011;36011;53.362;58.948;2022-09-13T06:29:46;13.55;;;8.15;;
49942;SDS011;36011;53.362;58.948;2022-09-13T06:32:48;13.70;;;8.20;;
49942;SDS011;36011;53.362;58.948;2022-09-13T06:35:49;15.32;;;8.07;;
49942;SDS011;36011;53.362;58.948;2022-09-13T06:38:53;12.13;;;7.22;;
49942;SDS011;36011;53.362;58.948;2022-09-13T06:41:57;11.35;;;7.20;;
49942;SDS011;36011;53.362;58.948;2022-09-13T06:45:01;16.38;;;8.15;;
49942;SDS011;36011;53.362;58.948;2022-09-13T06:48:07;14.07;;;8.55;;
49942;SDS011;36011;53.362;58.948;2022-09-13T06:51:12;14.20;;;7.60;;
49942;SDS011;36011;53.362;58.948;2022-09-13T06:54:23;14.95;;;7.95;;
49942;SDS011;36011;53.362;58.948;2022-09-13T06:57:24;16.75;;;7.68;;
49942;SDS011;36011;53.362;58.948;2022-09-13T07:00:26;13.50;;;7.18;;
49942;SDS011;36011;53.362;58.948;2022-09-13T07:03:30;14.98;;;7.30;;
49942;SDS011;36011;53.362;58.948;2022-09-13T07:06:37;12.60;;;7.65;;
49942;SDS011;36011;53.362;58.948;2022-09-13T07:09:40;16.85;;;9.25;;
49942;SDS011;36011;53.362;58.948;2022-09-13T07:12:45;12.02;;;7.32;;
49942;SDS011;36011;53.362;58.948;2022-09-13T07:15:47;12.65;;;7.13;;
49942;SDS011;36011;53.362;58.948;2022-09-13T07:18:52;10.82;;;5.40;;
49942;SDS011;36011;53.362;58.948;2022-09-13T07:21:56;7.70;;;4.35;;
49942;SDS011;36011;53.362;58.948;2022-09-13T07:25:00;5.70;;;3.45;;
49942;SDS011;36011;53.362;58.948;2022-09-13T07:28:04;6.40;;;2.95;;
49942;SDS011;36011;53.362;58.948;2022-09-13T07:31:10;5.13;;;3.20;;
49942;SDS011;36011;53.362;58.948;2022-09-13T07:34:34;6.22;;;3.53;;
49942;SDS011;36011;53.362;58.948;2022-09-13T07:37:38;5.82;;;3.67;;
49942;SDS011;36011;53.362;58.948;2022-09-13T07:40:41;18.95;;;11.93;;
49942;SDS011;36011;53.362;58.948;2022-09-13T07:43:56;11.52;;;5.00;;
49942;SDS011;36011;53.362;58.948;2022-09-13T07:47:01;10.35;;;4.07;;
49942;SDS011;36011;53.362;58.948;2022-09-13T07:50:02;11.70;;;3.70;;
49942;SDS011;36011;53.362;58.948;2022-09-13T07:53:04;7.88;;;3.30;;
49942;SDS011;36011;53.362;58.948;2022-09-13T07:56:15;8.35;;;2.53;;
49942;SDS011;36011;53.362;58.948;2022-09-13T07:59:20;5.93;;;2.47;;
49942;SDS011;36011;53.362;58.948;2022-09-13T08:02:27;7.75;;;2.40;;
49942;SDS011;36011;53.362;58.948;2022-09-13T08:05:30;6.88;;;2.80;;
49942;SDS011;36011;53.362;58.948;2022-09-13T08:08:32;8.63;;;2.80;;
49942;SDS011;36011;53.362;58.948;2022-09-13T08:11:36;6.60;;;2.35;;
49942;SDS011;36011;53.362;58.948;2022-09-13T08:14:42;4.35;;;1.70;;
49942;SDS011;36011;53.362;58.948;2022-09-13T08:17:46;6.25;;;1.58;;
49942;SDS011;36011;53.362;58.948;2022-09-13T08:20:50;5.43;;;1.77;;
49942;SDS011;36011;53.362;58.948;2022-09-13T08:24:00;5.85;;;1.60;;
49942;SDS011;36011;53.362;58.948;2022-09-13T08:27:04;6.38;;;1.30;;
49942;SDS011;36011;53.362;58.948;2022-09-13T08:30:08;5.38;;;1.38;;
49942;SDS011;36011;53.362;58.948;2022-09-13T08:33:13;8.00;;;1.45;;
49942;SDS011;36011;53.362;58.948;2022-09-13T08:36:18;5.68;;;1.75;;
49942;SDS011;36011;53.362;58.948;2022-09-13T08:39:20;5.28;;;1.85;;
49942;SDS011;36011;53.362;58.948;2022-09-13T08:42:30;6.93;;;1.88;;
49942;SDS011;36011;53.362;58.948;2022-09-13T08:46:04;3.75;;;1.40;;
49942;SDS011;36011;53.362;58.948;2022-09-13T08:49:15;4.22;;;1.67;;
49942;SDS011;36011;53.362;58.948;2022-09-13T08:53:11;3.38;;;0.75;;
49942;SDS011;36011;53.362;58.948;2022-09-13T09:06:22;2.83;;;0.80;;
49942;SDS011;36011;53.362;58.948;2022-09-13T09:09:25;1.45;;;0.80;;
49942;SDS011;36011;53.362;58.948;2022-09-13T09:15:57;2.20;;;0.80;;
49942;SDS011;36011;53.362;58.948;2022-09-13T09:19:16;3.13;;;0.80;;
49942;SDS011;36011;53.362;58.948;2022-09-13T09:22:36;3.78;;;1.00;;
49942;SDS011;36011;53.362;58.948;2022-09-13T09:28:42;1.48;;;0.80;;
49942;SDS011;36011;53.362;58.948;2022-09-13T09:35:26;1.95;;;1.15;;
49942;SDS011;36011;53.362;58.948;2022-09-13T09:38:40;1.55;;;0.80;;
49942;SDS011;36011;53.362;58.948;2022-09-13T09:41:47;2.40;;;0.70;;
49942;SDS011;36011;53.362;58.948;2022-09-13T09:45:02;1.98;;;0.55;;
49942;SDS011;36011;53.362;58.948;2022-09-13T09:51:29;0.30;;;0.30;;
49942;SDS011;36011;53.362;58.948;2022-09-13T09:54:33;0.57;;;0.30;;
49942;SDS011;36011;53.362;58.948;2022-09-13T10:00:57;5.53;;;4.15;;
49942;SDS011;36011;53.362;58.948;2022-09-13T10:07:23;0.60;;;0.30;;
49942;SDS011;36011;53.362;58.948;2022-09-13T10:10:37;0.77;;;0.40;;
49942;SDS011;36011;53.362;58.948;2022-09-13T10:13:59;0.47;;;0.43;;
49942;SDS011;36011;53.362;58.948;2022-09-13T10:17:05;0.60;;;0.40;;
49942;SDS011;36011;53.362;58.948;2022-09-13T10:20:19;0.80;;;0.60;;
49942;SDS011;36011;53.362;58.948;2022-09-13T10:23:25;0.77;;;0.47;;
49942;SDS011;36011;53.362;58.948;2022-09-13T10:26:27;0.40;;;0.32;;
49942;SDS011;36011;53.362;58.948;2022-09-13T10:29:38;1.67;;;0.50;;
49942;SDS011;36011;53.362;58.948;2022-09-13T10:32:40;0.65;;;0.40;;
49942;SDS011;36011;53.362;58.948;2022-09-13T10:35:44;0.77;;;0.65;;
49942;SDS011;36011;53.362;58.948;2022-09-13T10:39:07;0.80;;;0.60;;
49942;SDS011;36011;53.362;58.948;2022-09-13T10:42:20;3.28;;;0.50;;
49942;SDS011;36011;53.362;58.948;2022-09-13T10:45:27;1.38;;;0.50;;
49942;SDS011;36011;53.362;58.948;2022-09-13T10:48:44;1.70;;;0.40;;
49942;SDS011;36011;53.362;58.948;2022-09-13T10:51:47;0.40;;;0.40;;
49942;SDS011;36011;53.362;58.948;2022-09-13T10:54:48;0.50;;;0.32;;
49942;SDS011;36011;53.362;58.948;2022-09-13T10:58:10;0.40;;;0.40;;
49942;SDS011;36011;53.362;58.948;2022-09-13T11:08:14;0.65;;;0.65;;
49942;SDS011;36011;53.362;58.948;2022-09-13T11:28:33;0.65;;;0.50;;
49942;SDS011;36011;53.362;58.948;2022-09-13T11:32:13;1.45;;;0.85;;
49942;SDS011;36011;53.362;58.948;2022-09-13T11:38:50;1.50;;;0.65;;
49942;SDS011;36011;53.362;58.948;2022-09-13T11:45:37;1.13;;;0.60;;
49942;SDS011;36011;53.362;58.948;2022-09-13T11:52:28;0.63;;;0.52;;
49942;SDS011;36011;53.362;58.948;2022-09-13T11:59:15;1.02;;;0.60;;
49942;SDS011;36011;53.362;58.948;2022-09-13T12:02:30;1.88;;;0.82;;
49942;SDS011;36011;53.362;58.948;2022-09-13T12:05:53;1.17;;;0.60;;
49942;SDS011;36011;53.362;58.948;2022-09-13T12:09:04;0.77;;;0.70;;
49942;SDS011;36011;53.362;58.948;2022-09-13T12:12:15;1.27;;;0.65;;
49942;SDS011;36011;53.362;58.948;2022-09-13T12:18:39;1.65;;;0.77;;
49942;SDS011;36011;53.362;58.948;2022-09-13T12:21:46;3.22;;;1.10;;
49942;SDS011;36011;53.362;58.948;2022-09-13T12:24:54;1.35;;;1.05;;
49942;SDS011;36011;53.362;58.948;2022-09-13T12:31:32;3.75;;;1.90;;
49942;SDS011;36011;53.362;58.948;2022-09-13T12:34:45;5.25;;;3.13;;
49942;SDS011;36011;53.362;58.948;2022-09-13T12:41:34;1.00;;;0.80;;
49942;SDS011;36011;53.362;58.948;2022-09-13T13:02:35;1.40;;;1.00;;
49942;SDS011;36011;53.362;58.948;2022-09-13T13:05:41;1.88;;;1.08;;
49942;SDS011;36011;53.362;58.948;2022-09-13T13:08:49;1.90;;;0.90;;
49942;SDS011;36011;53.362;58.948;2022-09-13T13:11:54;2.28;;;1.13;;
49942;SDS011;36011;53.362;58.948;2022-09-13T13:15:00;1.40;;;0.80;;
49942;SDS011;36011;53.362;58.948;2022-09-13T13:18:25;1.30;;;0.90;;
49942;SDS011;36011;53.362;58.948;2022-09-13T13:21:38;2.28;;;1.10;;
49942;SDS011;36011;53.362;58.948;2022-09-13T13:24:44;10.40;;;5.68;;
49942;SDS011;36011;53.362;58.948;2022-09-13T13:27:50;2.53;;;2.13;;
49942;SDS011;36011;53.362;58.948;2022-09-13T13:30:54;1.88;;;1.48;;
49942;SDS011;36011;53.362;58.948;2022-09-13T13:40:22;2.30;;;1.08;;
49942;SDS011;36011;53.362;58.948;2022-09-13T13:43:30;1.27;;;0.90;;
49942;SDS011;36011;53.362;58.948;2022-09-13T13:46:33;1.35;;;0.90;;
49942;SDS011;36011;53.362;58.948;2022-09-13T13:52:39;1.85;;;1.30;;
49942;SDS011;36011;53.362;58.948;2022-09-13T13:55:49;4.18;;;1.75;;
49942;SDS011;36011;53.362;58.948;2022-09-13T13:59:15;1.10;;;1.00;;
49942;SDS011;36011;53.362;58.948;2022-09-13T14:02:30;1.05;;;0.90;;
49942;SDS011;36011;53.362;58.948;2022-09-13T14:19:46;1.20;;;1.00;;
49942;SDS011;36011;53.362;58.948;2022-09-13T14:23:10;2.40;;;1.40;;
49942;SDS011;36011;53.362;58.948;2022-09-13T14:26:16;8.65;;;5.85;;
49942;SDS011;36011;53.362;58.948;2022-09-13T14:29:21;11.60;;;8.40;;
49942;SDS011;36011;53.362;58.948;2022-09-13T14:32:26;5.85;;;3.78;;
49942;SDS011;36011;53.362;58.948;2022-09-13T14:35:44;3.17;;;2.40;;
49942;SDS011;36011;53.362;58.948;2022-09-13T14:38:49;2.92;;;2.47;;
49942;SDS011;36011;53.362;58.948;2022-09-13T14:41:59;14.85;;;7.85;;
49942;SDS011;36011;53.362;58.948;2022-09-13T14:45:14;9.38;;;5.15;;
49942;SDS011;36011;53.362;58.948;2022-09-13T14:48:40;5.15;;;4.07;;
49942;SDS011;36011;53.362;58.948;2022-09-13T14:51:49;6.35;;;3.17;;
49942;SDS011;36011;53.362;58.948;2022-09-13T14:55:02;12.82;;;7.53;;
49942;SDS011;36011;53.362;58.948;2022-09-13T14:58:31;13.68;;;7.88;;
49942;SDS011;36011;53.362;58.948;2022-09-13T15:01:35;15.63;;;9.80;;
49942;SDS011;36011;53.362;58.948;2022-09-13T15:04:38;19.25;;;10.73;;
49942;SDS011;36011;53.362;58.948;2022-09-13T15:07:42;18.23;;;13.07;;
49942;SDS011;36011;53.362;58.948;2022-09-13T15:10:46;32.05;;;19.27;;
49942;SDS011;36011;53.362;58.948;2022-09-13T15:13:59;35.10;;;22.50;;
49942;SDS011;36011;53.362;58.948;2022-09-13T15:17:10;37.72;;;24.10;;
49942;SDS011;36011;53.362;58.948;2022-09-13T15:20:19;40.83;;;26.83;;
49942;SDS011;36011;53.362;58.948;2022-09-13T15:23:30;43.80;;;27.25;;
49942;SDS011;36011;53.362;58.948;2022-09-13T15:26:33;50.10;;;29.17;;
49942;SDS011;36011;53.362;58.948;2022-09-13T15:29:40;52.15;;;31.42;;
49942;SDS011;36011;53.362;58.948;2022-09-13T15:33:02;56.47;;;34.10;;
49942;SDS011;36011;53.362;58.948;2022-09-13T15:36:27;61.55;;;34.45;;
49942;SDS011;36011;53.362;58.948;2022-09-13T15:40:40;61.33;;;35.38;;
49942;SDS011;36011;53.362;58.948;2022-09-13T15:46:17;70.75;;;38.05;;
49942;SDS011;36011;53.362;58.948;2022-09-13T15:49:22;79.38;;;42.42;;
49942;SDS011;36011;53.362;58.948;2022-09-13T15:52:31;74.15;;;43.50;;
49942;SDS011;36011;53.362;58.948;2022-09-13T15:55:35;79.78;;;44.42;;
49942;SDS011;36011;53.362;58.948;2022-09-13T15:58:40;80.93;;;44.05;;
49942;SDS011;36011;53.362;58.948;2022-09-13T16:01:42;72.82;;;42.97;;
49942;SDS011;36011;53.362;58.948;2022-09-13T16:04:45;72.75;;;40.03;;
49942;SDS011;36011;53.362;58.948;2022-09-13T16:07:47;84.45;;;45.40;;
49942;SDS011;36011;53.362;58.948;2022-09-13T16:10:51;73.88;;;42.15;;
49942;SDS011;36011;53.362;58.948;2022-09-13T16:13:53;77.18;;;40.22;;
49942;SDS011;36011;53.362;58.948;2022-09-13T16:17:18;70.18;;;38.72;;
49942;SDS011;36011;53.362;58.948;2022-09-13T16:20:27;61.53;;;36.05;;
49942;SDS011;36011;53.362;58.948;2022-09-13T16:23:35;64.30;;;35.20;;
49942;SDS011;36011;53.362;58.948;2022-09-13T16:26:42;61.13;;;34.83;;
49942;SDS011;36011;53.362;58.948;2022-09-13T16:29:43;57.83;;;33.30;;
49942;SDS011;36011;53.362;58.948;2022-09-13T16:32:48;63.22;;;33.92;;
49942;SDS011;36011;53.362;58.948;2022-09-13T16:35:53;55.03;;;31.77;;
49942;SDS011;36011;53.362;58.948;2022-09-13T16:38:57;65.13;;;32.60;;
49942;SDS011;36011;53.362;58.948;2022-09-13T16:42:02;60.40;;;35.60;;
49942;SDS011;36011;53.362;58.948;2022-09-13T16:45:04;60.67;;;35.90;;
49942;SDS011;36011;53.362;58.948;2022-09-13T16:48:09;72.60;;;39.58;;
49942;SDS011;36011;53.362;58.948;2022-09-13T16:51:13;68.82;;;38.30;;
49942;SDS011;36011;53.362;58.948;2022-09-13T16:54:14;69.93;;;39.78;;
49942;SDS011;36011;53.362;58.948;2022-09-13T16:57:20;83.82;;;43.75;;
49942;SDS011;36011;53.362;58.948;2022-09-13T17:00:26;94.68;;;47.22;;
49942;SDS011;36011;53.362;58.948;2022-09-13T17:03:31;85.90;;;47.70;;
49942;SDS011;36011;53.362;58.948;2022-09-13T17:06:34;95.95;;;48.90;;
49942;SDS011;36011;53.362;58.948;2022-09-13T17:09:35;79.70;;;42.75;;
49942;SDS011;36011;53.362;58.948;2022-09-13T17:12:43;80.85;;;40.45;;
49942;SDS011;36011;53.362;58.948;2022-09-13T17:15:51;81.07;;;42.25;;
49942;SDS011;36011;53.362;58.948;2022-09-13T17:18:52;85.70;;;44.97;;
49942;SDS011;36011;53.362;58.948;2022-09-13T17:21:56;81.30;;;42.00;;
49942;SDS011;36011;53.362;58.948;2022-09-13T17:25:01;88.88;;;44.70;;
49942;SDS011;36011;53.362;58.948;2022-09-13T17:28:07;77.53;;;40.10;;
49942;SDS011;36011;53.362;58.948;2022-09-13T17:31:10;84.18;;;40.10;;
49942;SDS011;36011;53.362;58.948;2022-09-13T17:34:12;71.85;;;37.80;;
49942;SDS011;36011;53.362;58.948;2022-09-13T17:37:13;72.32;;;39.47;;
49942;SDS011;36011;53.362;58.948;2022-09-13T17:40:15;75.07;;;40.72;;
49942;SDS011;36011;53.362;58.948;2022-09-13T17:46:23;61.43;;;31.63;;
49942;SDS011;36011;53.362;58.948;2022-09-13T17:49:29;56.28;;;31.70;;
49942;SDS011;36011;53.362;58.948;2022-09-13T17:52:32;56.10;;;29.92;;
49942;SDS011;36011;53.362;58.948;2022-09-13T17:55:46;60.22;;;31.42;;
49942;SDS011;36011;53.362;58.948;2022-09-13T17:58:51;47.10;;;26.13;;
49942;SDS011;36011;53.362;58.948;2022-09-13T18:01:58;43.00;;;22.13;;
49942;SDS011;36011;53.362;58.948;2022-09-13T18:05:05;34.28;;;18.90;;
49942;SDS011;36011;53.362;58.948;2022-09-13T18:08:09;38.78;;;21.05;;
49942;SDS011;36011;53.362;58.948;2022-09-13T18:11:12;39.47;;;20.67;;
49942;SDS011;36011;53.362;58.948;2022-09-13T18:14:18;39.33;;;21.67;;
49942;SDS011;36011;53.362;58.948;2022-09-13T18:17:24;39.90;;;21.48;;
49942;SDS011;36011;53.362;58.948;2022-09-13T18:20:28;43.28;;;21.80;;
49942;SDS011;36011;53.362;58.948;2022-09-13T18:23:29;36.45;;;21.52;;
49942;SDS011;36011;53.362;58.948;2022-09-13T18:26:34;46.05;;;24.00;;
49942;SDS011;36011;53.362;58.948;2022-09-13T18:29:36;39.15;;;21.20;;
49942;SDS011;36011;53.362;58.948;2022-09-13T18:32:43;33.15;;;19.67;;
49942;SDS011;36011;53.362;58.948;2022-09-13T18:36:00;33.55;;;19.23;;
49942;SDS011;36011;53.362;58.948;2022-09-13T18:39:05;33.83;;;17.95;;
49942;SDS011;36011;53.362;58.948;2022-09-13T18:42:16;24.08;;;14.70;;
49942;SDS011;36011;53.362;58.948;2022-09-13T18:45:19;30.70;;;15.10;;
49942;SDS011;36011;53.362;58.948;2022-09-13T18:48:20;19.50;;;10.60;;
49942;SDS011;36011;53.362;58.948;2022-09-13T18:51:22;21.25;;;13.32;;
49942;SDS011;36011;53.362;58.948;2022-09-13T18:54:28;24.48;;;13.57;;
49942;SDS011;36011;53.362;58.948;2022-09-13T18:57:29;22.10;;;13.23;;
49942;SDS011;36011;53.362;58.948;2022-09-13T19:00:33;13.70;;;7.68;;
49942;SDS011;36011;53.362;58.948;2022-09-13T19:03:35;11.13;;;5.75;;
49942;SDS011;36011;53.362;58.948;2022-09-13T19:06:50;19.52;;;11.63;;
49942;SDS011;36011;53.362;58.948;2022-09-13T19:09:57;11.48;;;7.82;;
49942;SDS011;36011;53.362;58.948;2022-09-13T19:13:01;15.88;;;9.88;;
49942;SDS011;36011;53.362;58.948;2022-09-13T19:16:05;11.98;;;7.80;;
49942;SDS011;36011;53.362;58.948;2022-09-13T19:19:14;10.40;;;5.85;;
49942;SDS011;36011;53.362;58.948;2022-09-13T19:22:20;9.45;;;4.80;;
49942;SDS011;36011;53.362;58.948;2022-09-13T19:25:21;13.63;;;8.63;;
49942;SDS011;36011;53.362;58.948;2022-09-13T19:28:30;10.13;;;6.60;;
49942;SDS011;36011;53.362;58.948;2022-09-13T19:31:32;11.43;;;6.32;;
49942;SDS011;36011;53.362;58.948;2022-09-13T19:34:38;10.98;;;6.95;;
49942;SDS011;36011;53.362;58.948;2022-09-13T19:37:42;10.43;;;6.80;;
49942;SDS011;36011;53.362;58.948;2022-09-13T19:40:53;10.48;;;7.15;;
49942;SDS011;36011;53.362;58.948;2022-09-13T19:44:05;11.02;;;7.40;;
49942;SDS011;36011;53.362;58.948;2022-09-13T19:47:07;10.57;;;7.88;;
49942;SDS011;36011;53.362;58.948;2022-09-13T19:50:12;12.45;;;8.52;;
49942;SDS011;36011;53.362;58.948;2022-09-13T19:53:16;12.40;;;7.40;;
49942;SDS011;36011;53.362;58.948;2022-09-13T19:56:21;12.40;;;7.32;;
49942;SDS011;36011;53.362;58.948;2022-09-13T19:59:24;12.60;;;7.78;;
49942;SDS011;36011;53.362;58.948;2022-09-13T20:02:29;11.88;;;7.50;;
49942;SDS011;36011;53.362;58.948;2022-09-13T20:08:36;20.90;;;11.30;;
49942;SDS011;36011;53.362;58.948;2022-09-13T20:11:44;22.58;;;14.98;;
49942;SDS011;36011;53.362;58.948;2022-09-13T20:14:49;20.10;;;11.75;;
49942;SDS011;36011;53.362;58.948;2022-09-13T20:17:52;14.63;;;8.45;;
49942;SDS011;36011;53.362;58.948;2022-09-13T20:21:03;13.13;;;8.45;;
49942;SDS011;36011;53.362;58.948;2022-09-13T20:24:05;13.13;;;9.00;;
49942;SDS011;36011;53.362;58.948;2022-09-13T20:27:10;15.82;;;9.65;;
49942;SDS011;36011;53.362;58.948;2022-09-13T20:30:11;18.10;;;9.75;;
49942;SDS011;36011;53.362;58.948;2022-09-13T20:33:17;15.52;;;9.65;;
49942;SDS011;36011;53.362;58.948;2022-09-13T20:36:22;12.73;;;9.30;;
49942;SDS011;36011;53.362;58.948;2022-09-13T20:39:24;14.75;;;10.02;;
49942;SDS011;36011;53.362;58.948;2022-09-13T20:42:26;14.63;;;9.35;;
49942;SDS011;36011;53.362;58.948;2022-09-13T20:45:28;15.77;;;10.43;;
49942;SDS011;36011;53.362;58.948;2022-09-13T20:48:30;13.18;;;8.48;;
49942;SDS011;36011;53.362;58.948;2022-09-13T20:51:37;12.98;;;8.23;;
49942;SDS011;36011;53.362;58.948;2022-09-13T20:54:39;15.98;;;8.98;;
49942;SDS011;36011;53.362;58.948;2022-09-13T20:57:40;10.27;;;8.48;;
49942;SDS011;36011;53.362;58.948;2022-09-13T21:00:44;10.45;;;7.13;;
49942;SDS011;36011;53.362;58.948;2022-09-13T21:03:50;12.82;;;7.43;;
49942;SDS011;36011;53.362;58.948;2022-09-13T21:06:53;11.40;;;7.85;;
49942;SDS011;36011;53.362;58.948;2022-09-13T21:13:49;10.25;;;7.32;;
49942;SDS011;36011;53.362;58.948;2022-09-13T21:16:55;12.90;;;7.47;;
49942;SDS011;36011;53.362;58.948;2022-09-13T21:19:59;10.80;;;6.93;;
49942;SDS011;36011;53.362;58.948;2022-09-13T21:23:00;11.55;;;7.90;;